createdAt,value
2018-03-02T00:01:58.246Z,100771.80
2018-03-02T00:04:24.151Z,100768.09
2018-03-02T00:06:49.954Z,100760.33
2018-03-02T00:09:16.782Z,100768.52
2018-03-02T00:11:42.594Z,100766.58
2018-03-02T00:14:08.414Z,100762.47
2018-03-02T00:16:34.231Z,100758.21
2018-03-02T00:19:00.087Z,100748.61
2018-03-02T00:21:25.895Z,100752.63
2018-03-02T00:23:52.686Z,100747.00
2018-03-02T00:26:18.527Z,100745.95
2018-03-02T00:28:45.377Z,100751.12
2018-03-02T00:31:12.190Z,100742.19
2018-03-02T00:33:38.827Z,100744.38
2018-03-02T00:36:04.635Z,100733.80
2018-03-02T00:38:31.428Z,100737.52
2018-03-02T00:40:58.167Z,100734.33
2018-03-02T00:43:23.979Z,100732.02
2018-03-02T00:45:49.853Z,100728.03
2018-03-02T00:48:15.664Z,100719.70
2018-03-02T00:50:41.523Z,100718.02
2018-03-02T00:53:08.138Z,100714.42
2018-03-02T00:55:34.973Z,100714.73
2018-03-02T00:58:01.747Z,100710.50
2018-03-02T01:00:27.550Z,100706.84
2018-03-02T01:02:54.258Z,100701.06
2018-03-02T01:05:20.934Z,100693.37
2018-03-02T01:07:47.709Z,100694.32
2018-03-02T01:10:14.510Z,100690.28
2018-03-02T01:12:40.346Z,100692.02
2018-03-02T01:15:06.247Z,100680.96
2018-03-02T01:17:32.853Z,100680.54
2018-03-02T01:19:59.675Z,100677.57
2018-03-02T01:22:25.525Z,100671.84
2018-03-02T01:24:51.366Z,100667.24
2018-03-02T01:27:17.243Z,100661.80
2018-03-02T01:29:43.085Z,100662.12
2018-03-02T01:32:08.891Z,100664.52
2018-03-02T01:34:34.699Z,100655.10
2018-03-02T01:37:01.457Z,100655.15
2018-03-02T01:39:27.278Z,100653.84
2018-03-02T01:41:53.902Z,100649.93
2018-03-02T01:44:19.713Z,100646.78
2018-03-02T01:46:46.571Z,100637.94
2018-03-02T01:49:12.378Z,100632.59
2018-03-02T01:51:44.367Z,100628.68
2018-03-02T01:54:10.211Z,100627.93
2018-03-02T01:56:36.939Z,100626.11
2018-03-02T01:59:02.778Z,100622.91
2018-03-02T02:01:29.426Z,100619.50
2018-03-02T02:03:55.271Z,100613.11
2018-03-02T02:06:21.074Z,100597.33
2018-03-02T02:08:46.878Z,100595.28
2018-03-02T02:11:13.619Z,100595.28
2018-03-02T02:13:40.363Z,100587.83
2018-03-02T02:16:06.287Z,100587.91
2018-03-02T02:18:33.038Z,100585.81
2018-03-02T02:20:58.967Z,100576.92
2018-03-02T02:23:24.766Z,100577.91
2018-03-02T02:25:50.578Z,100569.16
2018-03-02T02:28:16.391Z,100569.05
2018-03-02T02:30:42.206Z,100562.81
2018-03-02T02:33:08.022Z,100555.36
2018-03-02T02:35:33.835Z,100557.38
2018-03-02T02:37:59.678Z,100556.77
2018-03-02T02:40:25.490Z,100556.19
2018-03-02T02:42:51.351Z,100550.78
2018-03-02T02:45:17.336Z,100546.73
2018-03-02T02:47:43.266Z,100558.42
2018-03-02T02:50:09.082Z,100552.07
2018-03-02T02:52:34.891Z,100558.09
2018-03-02T02:55:00.708Z,100560.17
2018-03-02T02:57:26.528Z,100557.81
2018-03-02T02:59:52.341Z,100551.91
2018-03-02T03:02:18.150Z,100547.37
2018-03-02T03:04:43.998Z,100551.03
2018-03-02T03:07:09.807Z,100551.80
2018-03-02T03:09:35.620Z,100544.16
2018-03-02T03:12:01.436Z,100542.83
2018-03-02T03:14:27.343Z,100541.07
2018-03-02T03:16:53.169Z,100540.77
2018-03-02T03:19:19.010Z,100541.95
2018-03-02T03:21:44.853Z,100539.06
2018-03-02T03:24:10.734Z,100536.50
2018-03-02T03:26:36.578Z,100528.72
2018-03-02T03:29:02.393Z,100528.45
2018-03-02T03:31:28.236Z,100526.19
2018-03-02T03:33:54.043Z,100526.80
2018-03-02T03:36:19.894Z,100523.59
2018-03-02T03:38:45.759Z,100527.75
2018-03-02T03:41:11.571Z,100532.02
2018-03-02T03:43:37.502Z,100523.96
2018-03-02T03:46:03.270Z,100519.56
2018-03-02T03:48:29.110Z,100516.46
2018-03-02T03:50:54.919Z,100505.97
2018-03-02T03:53:20.773Z,100509.22
2018-03-02T03:55:46.574Z,100513.62
2018-03-02T03:58:12.410Z,100501.72
2018-03-02T04:00:38.259Z,100498.34
2018-03-02T04:03:04.075Z,100497.31
2018-03-02T04:05:29.916Z,100499.67
2018-03-02T04:07:55.727Z,100490.14
2018-03-02T04:10:21.586Z,100494.30
2018-03-02T04:12:47.956Z,100490.00
2018-03-02T04:15:13.778Z,100495.28
2018-03-02T04:17:39.618Z,100493.91
2018-03-02T04:20:05.432Z,100490.30
2018-03-02T04:22:31.277Z,100492.02
2018-03-02T04:24:57.092Z,100482.47
2018-03-02T04:27:22.941Z,100487.03
2018-03-02T04:29:48.786Z,100483.63
2018-03-02T04:32:14.630Z,100477.00
2018-03-02T04:34:40.542Z,100476.67
2018-03-02T04:37:06.423Z,100477.30
2018-03-02T04:39:32.235Z,100482.72
2018-03-02T04:41:58.088Z,100479.08
2018-03-02T04:44:23.903Z,100471.66
2018-03-02T04:46:49.756Z,100469.28
2018-03-02T04:49:15.568Z,100467.12
2018-03-02T04:51:41.422Z,100467.16
2018-03-02T04:54:07.294Z,100467.02
2018-03-02T04:56:33.146Z,100463.94
2018-03-02T04:58:59.042Z,100457.80
2018-03-02T05:01:24.850Z,100455.94
2018-03-02T05:03:50.656Z,100449.59
2018-03-02T05:06:16.594Z,100448.66
2018-03-02T05:08:43.244Z,100445.15
2018-03-02T05:11:09.067Z,100448.20
2018-03-02T05:13:34.875Z,100444.98
2018-03-02T05:16:01.753Z,100448.11
2018-03-02T05:18:27.559Z,100441.59
2018-03-02T05:20:53.419Z,100444.00
2018-03-02T05:23:19.235Z,100451.42
2018-03-02T05:25:45.079Z,100445.32
2018-03-02T05:28:11.031Z,100442.19
2018-03-02T05:30:36.883Z,100447.41
2018-03-02T05:33:02.698Z,100442.20
2018-03-02T05:35:28.549Z,100438.16
2018-03-02T05:37:54.358Z,100439.67
2018-03-02T05:40:20.194Z,100433.97
2018-03-02T05:42:46.012Z,100435.57
2018-03-02T05:45:11.826Z,100432.52
2018-03-02T05:47:38.008Z,100424.47
2018-03-02T05:50:03.838Z,100434.53
2018-03-02T05:52:29.659Z,100432.58
2018-03-02T05:54:55.471Z,100427.88
2018-03-02T05:57:21.274Z,100427.72
2018-03-02T05:59:47.086Z,100430.61
2018-03-02T06:02:12.931Z,100424.14
2018-03-02T06:04:38.748Z,100423.97
2018-03-02T06:07:04.607Z,100424.27
2018-03-02T06:09:30.420Z,100420.45
2018-03-02T06:11:56.234Z,100430.81
2018-03-02T06:14:22.085Z,100426.02
2018-03-02T06:16:47.914Z,100423.03
2018-03-02T06:19:13.774Z,100431.16
2018-03-02T06:21:39.579Z,100441.22
2018-03-02T06:24:05.471Z,100433.14
2018-03-02T06:26:31.289Z,100432.53
2018-03-02T06:28:57.095Z,100431.27
2018-03-02T06:31:22.902Z,100428.24
2018-03-02T06:33:48.827Z,100429.44
2018-03-02T06:36:14.631Z,100424.91
2018-03-02T06:38:40.452Z,100422.47
2018-03-02T06:41:06.262Z,100424.02
2018-03-02T06:43:32.154Z,100417.80
2018-03-02T06:45:57.968Z,100416.61
2018-03-02T06:48:23.848Z,100413.11
2018-03-02T06:50:49.665Z,100411.55
2018-03-02T06:53:15.483Z,100401.64
2018-03-02T06:55:41.300Z,100400.20
2018-03-02T06:58:07.111Z,100395.25
2018-03-02T07:00:32.931Z,100397.06
2018-03-02T07:02:58.746Z,100399.80
2018-03-02T07:05:24.642Z,100397.49
2018-03-02T07:07:50.457Z,100396.44
2018-03-02T07:10:16.268Z,100396.95
2018-03-02T07:12:42.074Z,100394.52
2018-03-02T07:15:07.958Z,100384.02
2018-03-02T07:17:33.807Z,100383.22
2018-03-02T07:19:59.695Z,100385.91
2018-03-02T07:22:25.633Z,100387.16
2018-03-02T07:24:51.455Z,100383.91
2018-03-02T07:27:17.260Z,100381.95
2018-03-02T07:29:43.080Z,100376.55
2018-03-02T07:32:08.931Z,100370.70
2018-03-02T07:34:34.731Z,100369.25
2018-03-02T07:37:00.589Z,100362.53
2018-03-02T07:39:26.398Z,100358.61
2018-03-02T07:41:52.218Z,100360.95
2018-03-02T07:44:18.097Z,100362.60
2018-03-02T07:46:43.906Z,100354.60
2018-03-02T07:49:09.751Z,100349.28
2018-03-02T07:51:35.563Z,100353.42
2018-03-02T07:54:01.422Z,100347.02
2018-03-02T07:56:27.259Z,100345.75
2018-03-02T07:58:53.069Z,100338.23
2018-03-02T08:01:18.913Z,100350.59
2018-03-02T08:03:44.767Z,100349.27
2018-03-02T08:06:10.611Z,100345.57
2018-03-02T08:08:36.425Z,100342.77
2018-03-02T08:11:02.282Z,100341.64
2018-03-02T08:13:28.954Z,100340.98
2018-03-02T08:15:54.767Z,100334.45
2018-03-02T08:18:20.574Z,100332.55
2018-03-02T08:20:46.391Z,100336.39
2018-03-02T08:23:12.347Z,100334.89
2018-03-02T08:25:38.162Z,100324.98
2018-03-02T08:28:04.066Z,100318.03
2018-03-02T08:30:29.878Z,100323.70
2018-03-02T08:32:55.720Z,100325.18
2018-03-02T08:35:21.598Z,100314.20
2018-03-02T08:37:47.421Z,100316.47
2018-03-02T08:40:13.255Z,100304.27
2018-03-02T08:42:39.115Z,100302.98
2018-03-02T08:45:04.990Z,100294.84
2018-03-02T08:47:30.855Z,100290.89
2018-03-02T08:49:56.774Z,100293.50
2018-03-02T08:52:22.622Z,100287.08
2018-03-02T08:54:48.475Z,100288.71
2018-03-02T08:57:14.435Z,100282.44
2018-03-02T08:59:40.354Z,100279.11
2018-03-02T09:02:06.174Z,100273.92
2018-03-02T09:04:32.035Z,100267.86
2018-03-02T09:06:57.891Z,100267.36
2018-03-02T09:09:23.802Z,100264.36
2018-03-02T09:11:49.627Z,100252.95
2018-03-02T09:14:15.540Z,100240.67
2018-03-02T09:16:41.556Z,100236.64
2018-03-02T09:19:07.424Z,100234.95
2018-03-02T09:21:33.415Z,100235.86
2018-03-02T09:23:59.262Z,100223.82
2018-03-02T09:26:25.101Z,100221.48
2018-03-02T09:28:50.980Z,100217.30
2018-03-02T09:31:16.907Z,100212.16
2018-03-02T09:33:42.718Z,100210.72
2018-03-02T09:36:08.636Z,100208.86
2018-03-02T09:38:34.448Z,100207.17
2018-03-02T09:41:00.268Z,100197.45
2018-03-02T09:43:26.152Z,100198.84
2018-03-02T09:45:51.968Z,100182.27
2018-03-02T09:48:17.830Z,100189.56
2018-03-02T09:50:43.663Z,100177.52
2018-03-02T09:53:09.469Z,100180.67
2018-03-02T09:55:35.322Z,100175.78
2018-03-02T09:58:01.265Z,100179.84
2018-03-02T10:00:27.081Z,100169.37
2018-03-02T10:02:52.902Z,100165.73
2018-03-02T10:05:18.830Z,100171.83
2018-03-02T10:07:44.730Z,100168.08
2018-03-02T10:10:10.548Z,100157.36
2018-03-02T10:12:36.515Z,100157.95
2018-03-02T10:15:02.332Z,100143.97
2018-03-02T10:17:28.188Z,100143.50
2018-03-02T10:19:54.015Z,100142.20
2018-03-02T10:22:19.861Z,100137.92
2018-03-02T10:24:45.674Z,100131.78
2018-03-02T10:27:11.490Z,100130.00
2018-03-02T10:29:37.312Z,100130.83
2018-03-02T10:32:03.127Z,100128.69
2018-03-02T10:34:28.953Z,100129.41
2018-03-02T10:36:54.771Z,100122.97
2018-03-02T10:39:20.609Z,100120.36
2018-03-02T10:41:46.435Z,100111.07
2018-03-02T10:44:12.299Z,100106.44
2018-03-02T10:46:38.118Z,100101.82
2018-03-02T10:49:03.927Z,100097.43
2018-03-02T10:51:29.738Z,100098.91
2018-03-02T10:53:55.559Z,100092.28
2018-03-02T10:56:21.368Z,100083.80
2018-03-02T10:58:47.190Z,100087.16
2018-03-02T11:01:13.080Z,100079.67
2018-03-02T11:03:38.923Z,100079.38
2018-03-02T11:06:04.767Z,100076.27
2018-03-02T11:08:30.618Z,100074.07
2018-03-02T11:10:56.454Z,100074.91
2018-03-02T11:13:22.298Z,100079.97
2018-03-02T11:15:48.118Z,100074.17
2018-03-02T11:18:13.983Z,100070.95
2018-03-02T11:20:39.836Z,100066.27
2018-03-02T11:23:05.682Z,100071.64
2018-03-02T11:25:31.547Z,100066.81
2018-03-02T11:27:57.362Z,100062.81
2018-03-02T11:30:23.204Z,100068.25
2018-03-02T11:32:49.036Z,100069.06
2018-03-02T11:35:14.891Z,100060.29
2018-03-02T11:37:40.705Z,100050.26
2018-03-02T11:40:06.550Z,100050.81
2018-03-02T11:42:32.363Z,100052.44
2018-03-02T11:44:58.211Z,100042.33
2018-03-02T11:47:24.024Z,100035.39
2018-03-02T11:49:49.955Z,100038.42
2018-03-02T11:52:15.766Z,100027.69
2018-03-02T11:54:41.574Z,100029.00
2018-03-02T11:57:07.383Z,100024.22
2018-03-02T11:59:33.209Z,100019.05
2018-03-02T12:01:59.043Z,100009.11
2018-03-02T12:04:24.886Z,100003.51
2018-03-02T12:06:50.694Z,99999.58
2018-03-02T12:09:16.541Z,100004.80
2018-03-02T12:11:42.388Z,100007.67
2018-03-02T12:14:08.431Z,99998.34
2018-03-02T12:16:34.255Z,99998.73
2018-03-02T12:19:00.205Z,100002.19
2018-03-02T12:21:26.140Z,99996.34
2018-03-02T12:23:52.196Z,99994.23
2018-03-02T12:26:18.013Z,99991.64
2018-03-02T12:28:43.829Z,99990.01
2018-03-02T12:31:09.715Z,99984.13
2018-03-02T12:33:35.555Z,99992.19
2018-03-02T12:36:01.410Z,99990.08
2018-03-02T12:38:27.218Z,99985.50
2018-03-02T12:40:53.026Z,99984.91
2018-03-02T12:43:18.835Z,99979.33
2018-03-02T12:45:44.642Z,99974.27
2018-03-02T12:48:10.457Z,99980.02
2018-03-02T12:50:36.474Z,99972.88
2018-03-02T12:53:02.288Z,99960.09
2018-03-02T12:55:28.100Z,99963.72
2018-03-02T12:57:53.968Z,99961.81
2018-03-02T13:00:19.786Z,99966.80
2018-03-02T13:02:45.724Z,99961.22
2018-03-02T13:05:11.585Z,99959.16
2018-03-02T13:07:37.391Z,99955.59
2018-03-02T13:10:03.405Z,99954.97
2018-03-02T13:12:29.507Z,99956.22
2018-03-02T13:14:55.392Z,99944.97
2018-03-02T13:17:21.439Z,99939.94
2018-03-02T13:19:47.336Z,99947.93
2018-03-02T13:22:19.341Z,99929.74
2018-03-02T13:24:45.318Z,99935.70
2018-03-02T13:27:17.258Z,99931.40
2018-03-02T13:29:43.082Z,99923.71
2018-03-02T13:32:08.891Z,99925.11
2018-03-02T13:34:40.847Z,99937.28
2018-03-02T13:37:06.680Z,99930.42
2018-03-02T13:39:38.546Z,99926.55
2018-03-02T13:42:07.306Z,99925.33
2018-03-02T13:44:33.208Z,99925.08
2018-03-02T13:46:59.108Z,99919.88
2018-03-02T13:49:31.206Z,99918.21
2018-03-02T13:51:57.025Z,99927.16
2018-03-02T13:54:23.011Z,99920.78
2018-03-02T13:56:55.155Z,99921.81
2018-03-02T13:59:20.970Z,99919.01
2018-03-02T14:01:46.787Z,99923.60
2018-03-02T14:04:18.851Z,99923.56
2018-03-02T14:06:44.946Z,99923.45
2018-03-02T14:09:10.787Z,99917.86
2018-03-02T14:11:36.595Z,99919.38
2018-03-02T14:14:02.517Z,99914.30
2018-03-02T14:16:28.365Z,99913.23
2018-03-02T14:18:54.187Z,99904.68
2018-03-02T14:21:20.034Z,99913.13
2018-03-02T14:23:45.990Z,99911.29
2018-03-02T14:26:12.011Z,99911.91
2018-03-02T14:28:37.923Z,99903.13
2018-03-02T14:31:03.815Z,99903.91
2018-03-02T14:33:29.638Z,99896.14
2018-03-02T14:35:55.448Z,99897.50
2018-03-02T14:38:21.266Z,99899.23
2018-03-02T14:40:47.083Z,99900.36
2018-03-02T14:43:12.895Z,99898.11
2018-03-02T14:45:38.706Z,99899.23
2018-03-02T14:48:04.665Z,99897.80
2018-03-02T14:50:30.474Z,99892.30
2018-03-02T14:52:56.420Z,99896.44
2018-03-02T14:55:22.266Z,99892.21
2018-03-02T14:57:48.087Z,99894.14
2018-03-02T15:00:13.938Z,99892.45
2018-03-02T15:02:39.788Z,99889.77
2018-03-02T15:05:05.602Z,99884.53
2018-03-02T15:07:31.538Z,99888.34
2018-03-02T15:09:57.354Z,99887.42
2018-03-02T15:12:23.194Z,99891.20
2018-03-02T15:14:49.014Z,99891.44
2018-03-02T15:17:14.820Z,99890.30
2018-03-02T15:19:40.631Z,99897.59
2018-03-02T15:22:06.603Z,99900.60
2018-03-02T15:24:32.453Z,99894.27
2018-03-02T15:26:58.263Z,99905.84
2018-03-02T15:29:24.107Z,99905.92
2018-03-02T15:31:49.962Z,99908.16
2018-03-02T15:34:15.776Z,99909.06
2018-03-02T15:36:41.587Z,99907.92
2018-03-02T15:39:07.434Z,99898.31
2018-03-02T15:41:33.238Z,99899.53
2018-03-02T15:43:59.083Z,99904.23
2018-03-02T15:46:24.891Z,99907.41
2018-03-02T15:48:50.743Z,99906.24
2018-03-02T15:51:16.747Z,99902.92
2018-03-02T15:53:42.555Z,99913.37
2018-03-02T15:56:08.403Z,99913.84
2018-03-02T15:58:34.202Z,99914.31
2018-03-02T16:01:00.068Z,99907.54
2018-03-02T16:03:25.900Z,99909.86
2018-03-02T16:05:51.769Z,99918.94
2018-03-02T16:08:17.586Z,99918.16
2018-03-02T16:10:43.410Z,99921.31
2018-03-02T16:13:09.299Z,99929.05
2018-03-02T16:15:35.148Z,99926.41
2018-03-02T16:18:00.995Z,99933.78
2018-03-02T16:20:26.811Z,99937.63
2018-03-02T16:22:52.781Z,99943.52
2018-03-02T16:25:18.636Z,99942.78
2018-03-02T16:27:44.454Z,99941.20
2018-03-02T16:30:10.467Z,99944.83
2018-03-02T16:32:36.326Z,99946.14
2018-03-02T16:35:02.167Z,99948.71
2018-03-02T16:37:27.989Z,99946.65
2018-03-02T16:39:53.849Z,99950.70
2018-03-02T16:42:25.936Z,99953.82
2018-03-02T16:44:51.785Z,99950.14
2018-03-02T16:47:17.594Z,99947.87
2018-03-02T16:49:43.450Z,99954.57
2018-03-02T16:52:09.273Z,99959.23
2018-03-02T16:54:35.127Z,99959.48
2018-03-02T16:57:00.935Z,99967.73
2018-03-02T16:59:26.750Z,99966.22
2018-03-02T17:01:52.836Z,99972.02
2018-03-02T17:04:18.688Z,99977.16
2018-03-02T17:06:44.524Z,99975.73
2018-03-02T17:09:10.379Z,99983.21
2018-03-02T17:11:36.330Z,99986.72
2018-03-02T17:14:02.177Z,99993.93
2018-03-02T17:16:28.027Z,100008.35
2018-03-02T17:18:53.860Z,100005.56
2018-03-02T17:21:19.717Z,99999.08
2018-03-02T17:23:45.535Z,100001.72
2018-03-02T17:26:11.419Z,100001.86
2018-03-02T17:28:37.248Z,100010.94
2018-03-02T17:31:03.116Z,100012.09
2018-03-02T17:33:28.935Z,100015.51
2018-03-02T17:35:54.798Z,100019.73
2018-03-02T17:38:20.667Z,100024.29
2018-03-02T17:40:46.538Z,100029.80
2018-03-02T17:43:12.399Z,100029.91
2018-03-02T17:45:38.231Z,100024.68
2018-03-02T17:48:04.088Z,100024.56
2018-03-02T17:50:29.898Z,100027.53
2018-03-02T17:52:55.748Z,100034.50
2018-03-02T17:55:21.563Z,100029.80
2018-03-02T17:57:47.570Z,100028.75
2018-03-02T18:00:13.961Z,100033.04
2018-03-02T18:02:39.996Z,100033.19
2018-03-02T18:05:06.054Z,100035.50
2018-03-02T18:07:31.887Z,100041.22
2018-03-02T18:09:57.712Z,100039.98
2018-03-02T18:12:23.531Z,100039.44
2018-03-02T18:14:49.490Z,100048.80
2018-03-02T18:17:15.322Z,100051.06
2018-03-02T18:19:41.282Z,100053.41
2018-03-02T18:22:07.153Z,100055.82
2018-03-02T18:24:32.977Z,100062.41
2018-03-02T18:26:58.791Z,100069.00
2018-03-02T18:29:24.765Z,100065.29
2018-03-02T18:31:50.747Z,100057.86
2018-03-02T18:34:16.569Z,100059.78
2018-03-02T18:36:42.496Z,100067.38
2018-03-02T18:39:08.314Z,100062.01
2018-03-02T18:41:34.274Z,100072.48
2018-03-02T18:44:00.093Z,100077.35
2018-03-02T18:46:25.910Z,100082.56
2018-03-02T18:48:51.895Z,100083.76
2018-03-02T18:51:17.854Z,100090.41
2018-03-02T18:53:43.675Z,100088.52
2018-03-02T18:56:09.663Z,100092.50
2018-03-02T18:58:35.539Z,100088.75
2018-03-02T19:01:01.352Z,100089.52
2018-03-02T19:03:30.492Z,100090.30
2018-03-02T19:05:56.443Z,100092.56
2018-03-02T19:08:22.257Z,100099.48
2018-03-02T19:10:48.070Z,100101.72
2018-03-02T19:13:14.078Z,100093.80
2018-03-02T19:15:40.008Z,100101.75
2018-03-02T19:18:05.932Z,100115.40
2018-03-02T19:20:31.856Z,100119.91
2018-03-02T19:22:57.783Z,100125.00
2018-03-02T19:25:23.696Z,100118.80
2018-03-02T19:27:49.548Z,100123.53
2018-03-02T19:30:15.452Z,100120.86
2018-03-02T19:32:41.307Z,100127.84
2018-03-02T19:35:07.177Z,100133.00
2018-03-02T19:37:33.040Z,100131.10
2018-03-02T19:39:58.946Z,100132.05
2018-03-02T19:42:24.806Z,100126.92
2018-03-02T19:44:50.674Z,100132.64
2018-03-02T19:47:16.596Z,100128.41
2018-03-02T19:49:42.415Z,100129.89
2018-03-02T19:52:08.263Z,100131.84
2018-03-02T19:54:34.982Z,100137.38
2018-03-02T19:57:00.880Z,100138.86
2018-03-02T19:59:26.699Z,100135.82
2018-03-02T20:01:53.538Z,100145.92
2018-03-02T20:04:19.402Z,100150.52
2018-03-02T20:06:45.453Z,100147.78
2018-03-02T20:09:11.328Z,100145.23
2018-03-02T20:11:39.265Z,100143.85
2018-03-02T20:14:05.097Z,100145.75
2018-03-02T20:16:30.931Z,100144.63
2018-03-02T20:18:56.776Z,100135.34
2018-03-02T20:21:22.649Z,100141.95
2018-03-02T20:23:50.706Z,100144.48
2018-03-02T20:26:16.732Z,100141.63
2018-03-02T20:28:43.091Z,100140.57
2018-03-02T20:31:08.960Z,100137.59
2018-03-02T20:33:34.795Z,100139.46
2018-03-02T20:36:00.676Z,100144.16
2018-03-02T20:38:26.495Z,100144.39
2018-03-02T20:40:52.427Z,100139.50
2018-03-02T20:43:19.827Z,100144.88
2018-03-02T20:45:45.683Z,100143.98
2018-03-02T20:48:11.646Z,100148.38
2018-03-02T20:50:37.479Z,100150.55
2018-03-02T20:53:03.319Z,100151.34
2018-03-02T20:55:29.145Z,100148.80
2018-03-02T20:57:55.016Z,100141.61
2018-03-02T21:00:20.844Z,100139.99
2018-03-02T21:02:46.714Z,100141.72
2018-03-02T21:05:14.785Z,100143.61
2018-03-02T21:07:40.603Z,100138.55
2018-03-02T21:10:06.426Z,100137.91
2018-03-02T21:12:32.274Z,100142.48
2018-03-02T21:14:58.911Z,100146.75
2018-03-02T21:17:25.786Z,100147.23
2018-03-02T21:19:51.647Z,100154.96
2018-03-02T21:22:17.522Z,100156.82
2018-03-02T21:24:43.339Z,100152.17
2018-03-02T21:27:09.187Z,100151.45
2018-03-02T21:29:35.179Z,100157.72
2018-03-02T21:32:00.995Z,100164.32
2018-03-02T21:34:26.885Z,100158.55
2018-03-02T21:36:52.703Z,100161.23
2018-03-02T21:39:18.594Z,100155.98
2018-03-02T21:41:44.404Z,100161.04
2018-03-02T21:44:10.264Z,100162.12
2018-03-02T21:46:36.196Z,100156.41
2018-03-02T21:49:02.011Z,100150.27
2018-03-02T21:51:27.842Z,100140.56
2018-03-02T21:53:53.659Z,100142.85
2018-03-02T21:56:19.506Z,100142.66
2018-03-02T21:58:45.314Z,100141.96
2018-03-02T22:01:11.126Z,100140.16
2018-03-02T22:03:37.136Z,100131.55
2018-03-02T22:06:02.950Z,100133.16
2018-03-02T22:08:28.770Z,100132.75
2018-03-02T22:10:54.586Z,100134.77
2018-03-02T22:13:20.522Z,100127.98
2018-03-02T22:15:46.473Z,100129.00
2018-03-02T22:18:12.294Z,100125.66
2018-03-02T22:20:38.114Z,100131.80
2018-03-02T22:23:03.918Z,100128.63
2018-03-02T22:25:29.727Z,100130.24
2018-03-02T22:27:55.542Z,100121.33
2018-03-02T22:30:21.359Z,100118.89
2018-03-02T22:32:47.274Z,100117.03
2018-03-02T22:35:13.079Z,100127.38
2018-03-02T22:37:38.894Z,100121.80
2018-03-02T22:40:04.713Z,100127.22
2018-03-02T22:42:30.571Z,100121.14
2018-03-02T22:44:56.383Z,100118.66
2018-03-02T22:47:22.298Z,100126.02
2018-03-02T22:49:48.106Z,100126.27
2018-03-02T22:52:14.482Z,100115.32
2018-03-02T22:54:40.303Z,100125.13
2018-03-02T22:57:06.123Z,100127.02
2018-03-02T22:59:32.011Z,100130.09
2018-03-02T23:01:57.819Z,100121.56
2018-03-02T23:04:23.754Z,100123.75
2018-03-02T23:06:49.723Z,100112.53
2018-03-02T23:09:15.537Z,100121.20
2018-03-02T23:11:41.383Z,100115.73
2018-03-02T23:14:07.206Z,100115.13
2018-03-02T23:16:33.154Z,100109.77
2018-03-02T23:18:58.975Z,100118.11
2018-03-02T23:21:25.003Z,100119.17
2018-03-02T23:23:50.815Z,100116.67
2018-03-02T23:26:16.627Z,100111.00
2018-03-02T23:28:42.441Z,100115.97
2018-03-02T23:31:08.290Z,100119.30
2018-03-02T23:33:34.249Z,100119.77
2018-03-02T23:36:00.096Z,100114.58
2018-03-02T23:38:25.947Z,100121.06
2018-03-02T23:40:51.794Z,100122.55
2018-03-02T23:43:17.653Z,100120.65
2018-03-02T23:45:43.453Z,100128.08
2018-03-02T23:48:09.266Z,100124.18
2018-03-02T23:50:35.248Z,100121.39
2018-03-02T23:53:01.099Z,100119.11
2018-03-02T23:55:26.952Z,100125.29
2018-03-02T23:57:52.763Z,100122.76
